sensor_id;sensor_type;location;lat;lon;timestamp;pressure;altitude;pressure_sealevel;temperature
74536;BMP180;63013;51.104;-115.370;2023-02-26T00:01:31;85382.80;;;22.92
74536;BMP180;63013;51.104;-115.370;2023-02-26T00:04:01;85373.80;;;22.90
74536;BMP180;63013;51.104;-115.370;2023-02-26T00:06:33;85378.40;;;22.90
74536;BMP180;63013;51.104;-115.370;2023-02-26T00:09:01;85385.60;;;22.90
74536;BMP180;63013;51.104;-115.370;2023-02-26T00:11:29;85375.80;;;22.92
74536;BMP180;63013;51.104;-115.370;2023-02-26T00:13:56;85368.20;;;22.96
74536;BMP180;63013;51.104;-115.370;2023-02-26T00:16:34;85366.80;;;23.00
74536;BMP180;63013;51.104;-115.370;2023-02-26T00:19:06;85367.20;;;23.00
74536;BMP180;63013;51.104;-115.370;2023-02-26T00:21:35;85370.20;;;23.00
74536;BMP180;63013;51.104;-115.370;2023-02-26T00:24:04;85358.80;;;23.00
74536;BMP180;63013;51.104;-115.370;2023-02-26T00:26:33;85355.60;;;23.02
74536;BMP180;63013;51.104;-115.370;2023-02-26T00:29:03;85349.00;;;23.00
74536;BMP180;63013;51.104;-115.370;2023-02-26T00:31:31;85339.60;;;23.00
74536;BMP180;63013;51.104;-115.370;2023-02-26T00:34:17;85337.80;;;23.00
74536;BMP180;63013;51.104;-115.370;2023-02-26T00:42:32;85320.00;;;23.00
74536;BMP180;63013;51.104;-115.370;2023-02-26T00:45:00;85305.40;;;23.00
74536;BMP180;63013;51.104;-115.370;2023-02-26T00:50:30;85283.40;;;22.94
74536;BMP180;63013;51.104;-115.370;2023-02-26T00:55:30;85295.80;;;22.90
74536;BMP180;63013;51.104;-115.370;2023-02-26T00:57:58;85280.20;;;22.90
74536;BMP180;63013;51.104;-115.370;2023-02-26T01:00:28;85277.60;;;22.90
74536;BMP180;63013;51.104;-115.370;2023-02-26T01:02:56;85275.60;;;22.90
74536;BMP180;63013;51.104;-115.370;2023-02-26T01:09:40;85253.40;;;22.90
74536;BMP180;63013;51.104;-115.370;2023-02-26T01:12:11;85265.80;;;22.90
74536;BMP180;63013;51.104;-115.370;2023-02-26T01:14:43;85258.00;;;22.90
74536;BMP180;63013;51.104;-115.370;2023-02-26T01:21:07;85260.60;;;22.82
74536;BMP180;63013;51.104;-115.370;2023-02-26T01:23:44;85248.20;;;22.80
74536;BMP180;63013;51.104;-115.370;2023-02-26T01:26:27;85244.40;;;22.80
74536;BMP180;63013;51.104;-115.370;2023-02-26T01:28:55;85250.40;;;22.80
74536;BMP180;63013;51.104;-115.370;2023-02-26T01:42:56;85243.80;;;22.90
74536;BMP180;63013;51.104;-115.370;2023-02-26T01:45:33;85247.20;;;22.90
74536;BMP180;63013;51.104;-115.370;2023-02-26T01:48:20;85243.40;;;22.90
74536;BMP180;63013;51.104;-115.370;2023-02-26T01:50:49;85243.20;;;22.94
74536;BMP180;63013;51.104;-115.370;2023-02-26T01:53:20;85244.80;;;22.96
74536;BMP180;63013;51.104;-115.370;2023-02-26T01:56:03;85238.60;;;23.00
74536;BMP180;63013;51.104;-115.370;2023-02-26T01:58:34;85240.00;;;23.00
74536;BMP180;63013;51.104;-115.370;2023-02-26T02:01:03;85231.80;;;23.00
74536;BMP180;63013;51.104;-115.370;2023-02-26T02:03:36;85223.60;;;22.98
74536;BMP180;63013;51.104;-115.370;2023-02-26T02:06:10;85234.60;;;22.96
74536;BMP180;63013;51.104;-115.370;2023-02-26T02:08:41;85232.00;;;22.92
74536;BMP180;63013;51.104;-115.370;2023-02-26T02:11:11;85231.20;;;22.90
74536;BMP180;63013;51.104;-115.370;2023-02-26T02:14:22;85231.20;;;22.90
74536;BMP180;63013;51.104;-115.370;2023-02-26T02:17:26;85222.20;;;22.90
74536;BMP180;63013;51.104;-115.370;2023-02-26T02:23:26;85209.20;;;22.90
74536;BMP180;63013;51.104;-115.370;2023-02-26T02:29:45;85220.20;;;22.80
74536;BMP180;63013;51.104;-115.370;2023-02-26T02:32:56;85218.80;;;22.80
74536;BMP180;63013;51.104;-115.370;2023-02-26T02:35:22;85213.00;;;22.80
74536;BMP180;63013;51.104;-115.370;2023-02-26T02:38:34;85211.80;;;22.78
74536;BMP180;63013;51.104;-115.370;2023-02-26T02:41:18;85213.00;;;22.70
74536;BMP180;63013;51.104;-115.370;2023-02-26T02:43:48;85211.40;;;22.70
74536;BMP180;63013;51.104;-115.370;2023-02-26T02:46:26;85208.00;;;22.70
74536;BMP180;63013;51.104;-115.370;2023-02-26T02:49:02;85212.00;;;22.70
74536;BMP180;63013;51.104;-115.370;2023-02-26T02:51:50;85204.80;;;22.68
74536;BMP180;63013;51.104;-115.370;2023-02-26T02:54:35;85192.60;;;22.60
74536;BMP180;63013;51.104;-115.370;2023-02-26T02:57:39;85189.40;;;22.60
74536;BMP180;63013;51.104;-115.370;2023-02-26T03:00:12;85191.00;;;22.60
74536;BMP180;63013;51.104;-115.370;2023-02-26T03:02:54;85186.80;;;22.60
74536;BMP180;63013;51.104;-115.370;2023-02-26T03:05:23;85182.20;;;22.50
74536;BMP180;63013;51.104;-115.370;2023-02-26T03:08:03;85185.00;;;22.50
74536;BMP180;63013;51.104;-115.370;2023-02-26T03:10:31;85178.80;;;22.50
74536;BMP180;63013;51.104;-115.370;2023-02-26T03:12:59;85171.00;;;22.50
74536;BMP180;63013;51.104;-115.370;2023-02-26T03:15:38;85166.00;;;22.50
74536;BMP180;63013;51.104;-115.370;2023-02-26T03:18:30;85163.60;;;22.40
74536;BMP180;63013;51.104;-115.370;2023-02-26T03:21:28;85142.60;;;22.40
74536;BMP180;63013;51.104;-115.370;2023-02-26T03:27:34;85155.40;;;22.40
74536;BMP180;63013;51.104;-115.370;2023-02-26T03:30:07;85153.60;;;22.38
74536;BMP180;63013;51.104;-115.370;2023-02-26T03:36:05;85141.20;;;22.30
74536;BMP180;63013;51.104;-115.370;2023-02-26T03:38:54;85143.00;;;22.30
74536;BMP180;63013;51.104;-115.370;2023-02-26T03:44:17;85136.00;;;22.30
74536;BMP180;63013;51.104;-115.370;2023-02-26T03:46:57;85132.20;;;22.22
74536;BMP180;63013;51.104;-115.370;2023-02-26T03:49:36;85121.40;;;22.20
74536;BMP180;63013;51.104;-115.370;2023-02-26T03:52:05;85125.40;;;22.20
74536;BMP180;63013;51.104;-115.370;2023-02-26T03:55:07;85121.60;;;22.20
74536;BMP180;63013;51.104;-115.370;2023-02-26T03:57:32;85106.80;;;22.20
74536;BMP180;63013;51.104;-115.370;2023-02-26T03:59:59;85107.80;;;22.20
74536;BMP180;63013;51.104;-115.370;2023-02-26T04:03:02;85104.40;;;22.14
74536;BMP180;63013;51.104;-115.370;2023-02-26T04:05:39;85088.80;;;22.12
74536;BMP180;63013;51.104;-115.370;2023-02-26T04:08:07;85085.80;;;22.10
74536;BMP180;63013;51.104;-115.370;2023-02-26T04:10:51;85090.60;;;22.10
74536;BMP180;63013;51.104;-115.370;2023-02-26T04:13:19;85089.40;;;22.10
74536;BMP180;63013;51.104;-115.370;2023-02-26T04:15:46;85080.20;;;22.10
74536;BMP180;63013;51.104;-115.370;2023-02-26T04:18:13;85077.80;;;22.10
74536;BMP180;63013;51.104;-115.370;2023-02-26T04:20:41;85061.80;;;22.08
74536;BMP180;63013;51.104;-115.370;2023-02-26T04:23:08;85057.40;;;22.00
74536;BMP180;63013;51.104;-115.370;2023-02-26T04:25:35;85055.20;;;22.00
74536;BMP180;63013;51.104;-115.370;2023-02-26T04:28:06;85046.80;;;22.00
74536;BMP180;63013;51.104;-115.370;2023-02-26T04:30:33;85049.80;;;22.00
74536;BMP180;63013;51.104;-115.370;2023-02-26T04:33:00;85044.60;;;22.00
74536;BMP180;63013;51.104;-115.370;2023-02-26T04:35:28;85037.80;;;22.00
74536;BMP180;63013;51.104;-115.370;2023-02-26T04:37:55;85039.00;;;21.98
74536;BMP180;63013;51.104;-115.370;2023-02-26T04:40:22;85042.60;;;21.94
74536;BMP180;63013;51.104;-115.370;2023-02-26T04:42:49;85034.80;;;21.90
74536;BMP180;63013;51.104;-115.370;2023-02-26T04:45:17;85026.00;;;21.90
74536;BMP180;63013;51.104;-115.370;2023-02-26T04:47:44;85024.20;;;21.90
74536;BMP180;63013;51.104;-115.370;2023-02-26T04:50:11;85027.40;;;21.90
74536;BMP180;63013;51.104;-115.370;2023-02-26T04:52:38;85025.00;;;21.90
74536;BMP180;63013;51.104;-115.370;2023-02-26T04:55:06;85015.00;;;21.90
74536;BMP180;63013;51.104;-115.370;2023-02-26T04:57:34;85022.00;;;21.80
74536;BMP180;63013;51.104;-115.370;2023-02-26T05:00:01;85011.40;;;21.80
74536;BMP180;63013;51.104;-115.370;2023-02-26T05:02:32;85014.00;;;21.80
74536;BMP180;63013;51.104;-115.370;2023-02-26T05:04:59;85018.20;;;21.80
74536;BMP180;63013;51.104;-115.370;2023-02-26T05:07:26;85015.00;;;21.80
74536;BMP180;63013;51.104;-115.370;2023-02-26T05:09:53;85012.20;;;21.80
74536;BMP180;63013;51.104;-115.370;2023-02-26T05:12:20;85015.80;;;21.72
74536;BMP180;63013;51.104;-115.370;2023-02-26T05:14:48;85012.20;;;21.70
74536;BMP180;63013;51.104;-115.370;2023-02-26T05:17:15;85012.80;;;21.70
74536;BMP180;63013;51.104;-115.370;2023-02-26T05:19:42;84997.00;;;21.70
74536;BMP180;63013;51.104;-115.370;2023-02-26T05:22:09;85000.00;;;21.70
74536;BMP180;63013;51.104;-115.370;2023-02-26T05:24:36;85005.20;;;21.70
74536;BMP180;63013;51.104;-115.370;2023-02-26T05:27:04;84999.60;;;21.66
74536;BMP180;63013;51.104;-115.370;2023-02-26T05:29:32;84990.00;;;21.60
74536;BMP180;63013;51.104;-115.370;2023-02-26T05:31:59;84993.80;;;21.60
74536;BMP180;63013;51.104;-115.370;2023-02-26T05:34:26;84985.20;;;21.60
74536;BMP180;63013;51.104;-115.370;2023-02-26T05:36:53;84987.40;;;21.60
74536;BMP180;63013;51.104;-115.370;2023-02-26T05:39:21;84978.20;;;21.60
74536;BMP180;63013;51.104;-115.370;2023-02-26T05:41:48;84974.40;;;21.58
74536;BMP180;63013;51.104;-115.370;2023-02-26T05:44:17;84979.00;;;21.50
74536;BMP180;63013;51.104;-115.370;2023-02-26T05:46:44;84970.40;;;21.50
74536;BMP180;63013;51.104;-115.370;2023-02-26T05:49:11;84971.80;;;21.50
74536;BMP180;63013;51.104;-115.370;2023-02-26T05:51:39;84957.20;;;21.50
74536;BMP180;63013;51.104;-115.370;2023-02-26T05:54:09;84962.00;;;21.50
74536;BMP180;63013;51.104;-115.370;2023-02-26T05:56:36;84956.60;;;21.44
74536;BMP180;63013;51.104;-115.370;2023-02-26T05:59:04;84947.20;;;21.40
74536;BMP180;63013;51.104;-115.370;2023-02-26T06:01:31;84951.00;;;21.40
74536;BMP180;63013;51.104;-115.370;2023-02-26T06:03:58;84948.40;;;21.40
74536;BMP180;63013;51.104;-115.370;2023-02-26T06:06:26;84952.20;;;21.40
74536;BMP180;63013;51.104;-115.370;2023-02-26T06:08:53;84952.00;;;21.40
74536;BMP180;63013;51.104;-115.370;2023-02-26T06:11:21;84932.60;;;21.38
74536;BMP180;63013;51.104;-115.370;2023-02-26T06:13:49;84933.60;;;21.30
74536;BMP180;63013;51.104;-115.370;2023-02-26T06:16:16;84940.00;;;21.30
74536;BMP180;63013;51.104;-115.370;2023-02-26T06:18:43;84936.60;;;21.30
74536;BMP180;63013;51.104;-115.370;2023-02-26T06:21:10;84938.20;;;21.30
74536;BMP180;63013;51.104;-115.370;2023-02-26T06:23:37;84940.60;;;21.30
74536;BMP180;63013;51.104;-115.370;2023-02-26T06:26:05;84937.40;;;21.30
74536;BMP180;63013;51.104;-115.370;2023-02-26T06:28:32;84931.80;;;21.28
74536;BMP180;63013;51.104;-115.370;2023-02-26T06:30:59;84926.40;;;21.20
74536;BMP180;63013;51.104;-115.370;2023-02-26T06:33:27;84923.40;;;21.20
74536;BMP180;63013;51.104;-115.370;2023-02-26T06:35:54;84918.80;;;21.20
74536;BMP180;63013;51.104;-115.370;2023-02-26T06:38:23;84914.00;;;21.20
74536;BMP180;63013;51.104;-115.370;2023-02-26T06:40:50;84921.20;;;21.20
74536;BMP180;63013;51.104;-115.370;2023-02-26T06:43:17;84929.00;;;21.20
74536;BMP180;63013;51.104;-115.370;2023-02-26T06:45:45;84911.80;;;21.14
74536;BMP180;63013;51.104;-115.370;2023-02-26T06:48:12;84917.60;;;21.10
74536;BMP180;63013;51.104;-115.370;2023-02-26T06:50:39;84906.40;;;21.10
74536;BMP180;63013;51.104;-115.370;2023-02-26T06:53:07;84903.00;;;21.10
74536;BMP180;63013;51.104;-115.370;2023-02-26T06:55:34;84900.80;;;21.10
74536;BMP180;63013;51.104;-115.370;2023-02-26T06:58:01;84907.20;;;21.10
74536;BMP180;63013;51.104;-115.370;2023-02-26T07:00:29;84890.40;;;21.10
74536;BMP180;63013;51.104;-115.370;2023-02-26T07:02:56;84901.20;;;21.04
74536;BMP180;63013;51.104;-115.370;2023-02-26T07:05:24;84891.40;;;21.00
74536;BMP180;63013;51.104;-115.370;2023-02-26T07:07:51;84886.00;;;21.00
74536;BMP180;63013;51.104;-115.370;2023-02-26T07:10:18;84884.40;;;21.00
74536;BMP180;63013;51.104;-115.370;2023-02-26T07:12:47;84879.20;;;21.00
74536;BMP180;63013;51.104;-115.370;2023-02-26T07:15:14;84876.60;;;21.00
74536;BMP180;63013;51.104;-115.370;2023-02-26T07:17:42;84872.40;;;21.00
74536;BMP180;63013;51.104;-115.370;2023-02-26T07:20:10;84866.60;;;20.90
74536;BMP180;63013;51.104;-115.370;2023-02-26T07:22:38;84853.20;;;20.90
74536;BMP180;63013;51.104;-115.370;2023-02-26T07:25:06;84846.00;;;20.90
74536;BMP180;63013;51.104;-115.370;2023-02-26T07:27:33;84845.60;;;20.90
74536;BMP180;63013;51.104;-115.370;2023-02-26T07:30:01;84842.40;;;20.90
74536;BMP180;63013;51.104;-115.370;2023-02-26T07:32:29;84846.60;;;20.90
74536;BMP180;63013;51.104;-115.370;2023-02-26T07:34:55;84830.20;;;20.86
74536;BMP180;63013;51.104;-115.370;2023-02-26T07:37:23;84829.00;;;20.80
74536;BMP180;63013;51.104;-115.370;2023-02-26T07:39:50;84829.60;;;20.80
74536;BMP180;63013;51.104;-115.370;2023-02-26T07:42:18;84821.80;;;20.80
74536;BMP180;63013;51.104;-115.370;2023-02-26T07:44:45;84816.20;;;20.80
74536;BMP180;63013;51.104;-115.370;2023-02-26T07:47:12;84810.60;;;20.80
74536;BMP180;63013;51.104;-115.370;2023-02-26T07:49:39;84811.20;;;20.80
74536;BMP180;63013;51.104;-115.370;2023-02-26T07:52:07;84809.60;;;20.80
74536;BMP180;63013;51.104;-115.370;2023-02-26T07:54:35;84804.40;;;20.80
74536;BMP180;63013;51.104;-115.370;2023-02-26T07:57:02;84807.00;;;20.78
74536;BMP180;63013;51.104;-115.370;2023-02-26T07:59:30;84806.80;;;20.70
74536;BMP180;63013;51.104;-115.370;2023-02-26T08:01:57;84801.80;;;20.70
74536;BMP180;63013;51.104;-115.370;2023-02-26T08:04:24;84799.00;;;20.70
74536;BMP180;63013;51.104;-115.370;2023-02-26T08:06:51;84791.40;;;20.70
74536;BMP180;63013;51.104;-115.370;2023-02-26T08:09:22;84793.40;;;20.70
74536;BMP180;63013;51.104;-115.370;2023-02-26T08:11:50;84792.00;;;20.70
74536;BMP180;63013;51.104;-115.370;2023-02-26T08:14:17;84784.60;;;20.66
74536;BMP180;63013;51.104;-115.370;2023-02-26T08:16:44;84778.00;;;20.62
74536;BMP180;63013;51.104;-115.370;2023-02-26T08:19:11;84776.20;;;20.60
74536;BMP180;63013;51.104;-115.370;2023-02-26T08:21:39;84770.20;;;20.60
74536;BMP180;63013;51.104;-115.370;2023-02-26T08:24:06;84761.20;;;20.60
74536;BMP180;63013;51.104;-115.370;2023-02-26T08:26:37;84757.20;;;20.60
74536;BMP180;63013;51.104;-115.370;2023-02-26T08:29:05;84756.80;;;20.60
74536;BMP180;63013;51.104;-115.370;2023-02-26T08:31:32;84754.40;;;20.54
74536;BMP180;63013;51.104;-115.370;2023-02-26T08:34:01;84742.00;;;20.50
74536;BMP180;63013;51.104;-115.370;2023-02-26T08:36:28;84735.80;;;20.50
74536;BMP180;63013;51.104;-115.370;2023-02-26T08:38:55;84729.60;;;20.50
74536;BMP180;63013;51.104;-115.370;2023-02-26T08:41:23;84727.80;;;20.50
74536;BMP180;63013;51.104;-115.370;2023-02-26T08:43:53;84727.60;;;20.48
74536;BMP180;63013;51.104;-115.370;2023-02-26T08:46:20;84723.20;;;20.42
74536;BMP180;63013;51.104;-115.370;2023-02-26T08:48:47;84720.60;;;20.40
74536;BMP180;63013;51.104;-115.370;2023-02-26T08:51:15;84714.40;;;20.40
74536;BMP180;63013;51.104;-115.370;2023-02-26T08:53:42;84708.80;;;20.40
74536;BMP180;63013;51.104;-115.370;2023-02-26T08:56:10;84714.40;;;20.40
74536;BMP180;63013;51.104;-115.370;2023-02-26T08:58:38;84706.40;;;20.40
74536;BMP180;63013;51.104;-115.370;2023-02-26T09:01:05;84708.40;;;20.40
74536;BMP180;63013;51.104;-115.370;2023-02-26T09:03:33;84710.40;;;20.32
74536;BMP180;63013;51.104;-115.370;2023-02-26T09:06:00;84696.20;;;20.30
74536;BMP180;63013;51.104;-115.370;2023-02-26T09:08:27;84697.20;;;20.30
74536;BMP180;63013;51.104;-115.370;2023-02-26T09:10:54;84678.20;;;20.30
74536;BMP180;63013;51.104;-115.370;2023-02-26T09:13:25;84686.40;;;20.30
74536;BMP180;63013;51.104;-115.370;2023-02-26T09:15:52;84675.00;;;20.30
74536;BMP180;63013;51.104;-115.370;2023-02-26T09:18:19;84688.80;;;20.30
74536;BMP180;63013;51.104;-115.370;2023-02-26T09:20:46;84679.00;;;20.30
74536;BMP180;63013;51.104;-115.370;2023-02-26T09:23:13;84677.80;;;20.30
74536;BMP180;63013;51.104;-115.370;2023-02-26T09:25:40;84683.60;;;20.22
74536;BMP180;63013;51.104;-115.370;2023-02-26T09:28:07;84675.80;;;20.20
74536;BMP180;63013;51.104;-115.370;2023-02-26T09:30:34;84666.40;;;20.20
74536;BMP180;63013;51.104;-115.370;2023-02-26T09:33:02;84670.00;;;20.20
74536;BMP180;63013;51.104;-115.370;2023-02-26T09:35:29;84666.60;;;20.20
74536;BMP180;63013;51.104;-115.370;2023-02-26T09:37:56;84659.20;;;20.20
74536;BMP180;63013;51.104;-115.370;2023-02-26T09:40:42;84648.60;;;20.20
74536;BMP180;63013;51.104;-115.370;2023-02-26T09:45:47;84635.00;;;20.10
74536;BMP180;63013;51.104;-115.370;2023-02-26T09:48:20;84632.80;;;20.10
74536;BMP180;63013;51.104;-115.370;2023-02-26T09:50:57;84623.80;;;20.10
74536;BMP180;63013;51.104;-115.370;2023-02-26T09:53:34;84620.40;;;20.10
74536;BMP180;63013;51.104;-115.370;2023-02-26T09:56:24;84614.60;;;20.08
74536;BMP180;63013;51.104;-115.370;2023-02-26T09:58:53;84595.60;;;20.02
74536;BMP180;63013;51.104;-115.370;2023-02-26T10:02:11;84590.40;;;20.00
74536;BMP180;63013;51.104;-115.370;2023-02-26T10:05:09;84583.40;;;20.00
74536;BMP180;63013;51.104;-115.370;2023-02-26T10:07:57;84576.00;;;20.00
74536;BMP180;63013;51.104;-115.370;2023-02-26T10:11:20;84570.20;;;20.00
74536;BMP180;63013;51.104;-115.370;2023-02-26T10:14:10;84570.00;;;19.90
74536;BMP180;63013;51.104;-115.370;2023-02-26T10:16:44;84574.40;;;19.90
74536;BMP180;63013;51.104;-115.370;2023-02-26T10:19:31;84571.00;;;19.90
74536;BMP180;63013;51.104;-115.370;2023-02-26T10:22:39;84569.00;;;19.90
74536;BMP180;63013;51.104;-115.370;2023-02-26T10:25:37;84571.20;;;19.90
74536;BMP180;63013;51.104;-115.370;2023-02-26T10:34:44;84559.00;;;19.80
74536;BMP180;63013;51.104;-115.370;2023-02-26T10:40:17;84562.40;;;19.80
74536;BMP180;63013;51.104;-115.370;2023-02-26T10:43:53;84553.20;;;19.72
74536;BMP180;63013;51.104;-115.370;2023-02-26T10:49:20;84544.40;;;19.70
74536;BMP180;63013;51.104;-115.370;2023-02-26T10:51:51;84540.80;;;19.70
74536;BMP180;63013;51.104;-115.370;2023-02-26T10:54:35;84546.60;;;19.70
74536;BMP180;63013;51.104;-115.370;2023-02-26T10:57:08;84542.20;;;19.70
74536;BMP180;63013;51.104;-115.370;2023-02-26T10:59:40;84559.00;;;19.70
74536;BMP180;63013;51.104;-115.370;2023-02-26T11:02:37;84549.60;;;19.68
74536;BMP180;63013;51.104;-115.370;2023-02-26T11:05:19;84542.20;;;19.62
74536;BMP180;63013;51.104;-115.370;2023-02-26T11:07:52;84541.20;;;19.60
74536;BMP180;63013;51.104;-115.370;2023-02-26T11:10:25;84535.60;;;19.60
74536;BMP180;63013;51.104;-115.370;2023-02-26T11:12:53;84522.40;;;19.60
74536;BMP180;63013;51.104;-115.370;2023-02-26T11:15:25;84531.80;;;19.60
74536;BMP180;63013;51.104;-115.370;2023-02-26T11:17:57;84536.20;;;19.60
74536;BMP180;63013;51.104;-115.370;2023-02-26T11:20:55;84530.60;;;19.56
74536;BMP180;63013;51.104;-115.370;2023-02-26T11:23:29;84528.20;;;19.52
74536;BMP180;63013;51.104;-115.370;2023-02-26T11:26:06;84517.80;;;19.50
74536;BMP180;63013;51.104;-115.370;2023-02-26T11:28:46;84515.40;;;19.50
74536;BMP180;63013;51.104;-115.370;2023-02-26T11:31:19;84514.00;;;19.50
74536;BMP180;63013;51.104;-115.370;2023-02-26T11:33:53;84509.80;;;19.50
74536;BMP180;63013;51.104;-115.370;2023-02-26T11:36:27;84501.60;;;19.50
74536;BMP180;63013;51.104;-115.370;2023-02-26T11:41:37;84515.60;;;19.40
74536;BMP180;63013;51.104;-115.370;2023-02-26T11:47:01;84515.60;;;19.40
74536;BMP180;63013;51.104;-115.370;2023-02-26T11:49:29;84508.40;;;19.40
74536;BMP180;63013;51.104;-115.370;2023-02-26T11:52:41;84505.80;;;19.40
74536;BMP180;63013;51.104;-115.370;2023-02-26T11:55:21;84491.20;;;19.40
74536;BMP180;63013;51.104;-115.370;2023-02-26T11:57:55;84502.80;;;19.32
74536;BMP180;63013;51.104;-115.370;2023-02-26T12:00:34;84487.40;;;19.30
74536;BMP180;63013;51.104;-115.370;2023-02-26T12:03:06;84480.80;;;19.30
74536;BMP180;63013;51.104;-115.370;2023-02-26T12:05:38;84490.20;;;19.30
74536;BMP180;63013;51.104;-115.370;2023-02-26T12:11:23;84469.20;;;19.30
74536;BMP180;63013;51.104;-115.370;2023-02-26T12:20:41;84464.80;;;19.20
74536;BMP180;63013;51.104;-115.370;2023-02-26T12:26:30;84465.80;;;19.20
74536;BMP180;63013;51.104;-115.370;2023-02-26T12:32:34;84455.40;;;19.20
74536;BMP180;63013;51.104;-115.370;2023-02-26T12:35:21;84457.00;;;19.10
74536;BMP180;63013;51.104;-115.370;2023-02-26T12:41:14;84445.20;;;19.10
74536;BMP180;63013;51.104;-115.370;2023-02-26T12:43:55;84450.40;;;19.10
74536;BMP180;63013;51.104;-115.370;2023-02-26T12:49:47;84438.60;;;19.10
74536;BMP180;63013;51.104;-115.370;2023-02-26T12:52:53;84445.20;;;19.10
74536;BMP180;63013;51.104;-115.370;2023-02-26T12:55:49;84444.40;;;19.02
74536;BMP180;63013;51.104;-115.370;2023-02-26T13:07:56;84424.00;;;18.96
74536;BMP180;63013;51.104;-115.370;2023-02-26T13:19:22;84412.80;;;18.90
74536;BMP180;63013;51.104;-115.370;2023-02-26T13:22:15;84417.00;;;18.90
74536;BMP180;63013;51.104;-115.370;2023-02-26T13:24:59;84421.60;;;18.80
74536;BMP180;63013;51.104;-115.370;2023-02-26T13:27:36;84417.80;;;18.80
74536;BMP180;63013;51.104;-115.370;2023-02-26T13:30:21;84406.00;;;18.80
74536;BMP180;63013;51.104;-115.370;2023-02-26T13:32:57;84408.80;;;18.80
74536;BMP180;63013;51.104;-115.370;2023-02-26T13:35:44;84402.40;;;18.80
74536;BMP180;63013;51.104;-115.370;2023-02-26T13:38:51;84402.80;;;18.80
74536;BMP180;63013;51.104;-115.370;2023-02-26T13:50:01;84393.80;;;18.70
74536;BMP180;63013;51.104;-115.370;2023-02-26T13:52:35;84385.40;;;18.70
74536;BMP180;63013;51.104;-115.370;2023-02-26T13:55:04;84385.20;;;18.70
74536;BMP180;63013;51.104;-115.370;2023-02-26T13:57:51;84378.20;;;18.70
74536;BMP180;63013;51.104;-115.370;2023-02-26T14:00:30;84382.00;;;18.70
74536;BMP180;63013;51.104;-115.370;2023-02-26T14:08:42;84368.80;;;18.68
74536;BMP180;63013;51.104;-115.370;2023-02-26T14:11:36;84376.00;;;18.66
74536;BMP180;63013;51.104;-115.370;2023-02-26T14:17:27;84371.80;;;18.60
74536;BMP180;63013;51.104;-115.370;2023-02-26T14:25:20;84367.20;;;18.60
74536;BMP180;63013;51.104;-115.370;2023-02-26T14:31:17;84370.00;;;18.60
74536;BMP180;63013;51.104;-115.370;2023-02-26T14:34:13;84374.20;;;18.60
74536;BMP180;63013;51.104;-115.370;2023-02-26T14:36:48;84381.20;;;18.60
74536;BMP180;63013;51.104;-115.370;2023-02-26T14:39:31;84367.60;;;18.60
74536;BMP180;63013;51.104;-115.370;2023-02-26T14:45:21;84366.20;;;18.68
74536;BMP180;63013;51.104;-115.370;2023-02-26T14:47:49;84364.40;;;18.70
74536;BMP180;63013;51.104;-115.370;2023-02-26T14:50:22;84360.40;;;18.70
74536;BMP180;63013;51.104;-115.370;2023-02-26T14:53:20;84355.60;;;18.70
74536;BMP180;63013;51.104;-115.370;2023-02-26T14:56:32;84360.40;;;18.80
74536;BMP180;63013;51.104;-115.370;2023-02-26T15:02:24;84358.40;;;18.90
74536;BMP180;63013;51.104;-115.370;2023-02-26T15:05:18;84356.60;;;18.90
74536;BMP180;63013;51.104;-115.370;2023-02-26T15:11:21;84351.40;;;19.00
74536;BMP180;63013;51.104;-115.370;2023-02-26T15:17:41;84347.40;;;19.10
74536;BMP180;63013;51.104;-115.370;2023-02-26T15:23:40;84353.40;;;19.24
74536;BMP180;63013;51.104;-115.370;2023-02-26T15:26:22;84352.80;;;19.30
74536;BMP180;63013;51.104;-115.370;2023-02-26T15:28:51;84350.00;;;19.38
74536;BMP180;63013;51.104;-115.370;2023-02-26T15:31:31;84351.20;;;19.40
74536;BMP180;63013;51.104;-115.370;2023-02-26T15:34:01;84361.20;;;19.50
74536;BMP180;63013;51.104;-115.370;2023-02-26T15:36:31;84361.60;;;19.50
74536;BMP180;63013;51.104;-115.370;2023-02-26T15:39:01;84358.60;;;19.60
74536;BMP180;63013;51.104;-115.370;2023-02-26T15:41:32;84359.20;;;19.70
74536;BMP180;63013;51.104;-115.370;2023-02-26T15:44:15;84357.20;;;19.76
74536;BMP180;63013;51.104;-115.370;2023-02-26T15:46:47;84352.00;;;19.80
74536;BMP180;63013;51.104;-115.370;2023-02-26T15:49:35;84351.60;;;19.90
74536;BMP180;63013;51.104;-115.370;2023-02-26T15:52:06;84361.20;;;19.92
74536;BMP180;63013;51.104;-115.370;2023-02-26T15:55:02;84360.60;;;20.00
74536;BMP180;63013;51.104;-115.370;2023-02-26T15:57:31;84360.00;;;20.10
74536;BMP180;63013;51.104;-115.370;2023-02-26T16:00:11;84356.00;;;20.10
74536;BMP180;63013;51.104;-115.370;2023-02-26T16:02:42;84358.60;;;20.20
74536;BMP180;63013;51.104;-115.370;2023-02-26T16:05:18;84367.40;;;20.30
74536;BMP180;63013;51.104;-115.370;2023-02-26T16:07:45;84365.80;;;20.38
74536;BMP180;63013;51.104;-115.370;2023-02-26T16:10:28;84361.00;;;20.42
74536;BMP180;63013;51.104;-115.370;2023-02-26T16:13:00;84358.40;;;20.50
74536;BMP180;63013;51.104;-115.370;2023-02-26T16:15:35;84363.00;;;20.60
74536;BMP180;63013;51.104;-115.370;2023-02-26T16:18:13;84358.80;;;20.70
74536;BMP180;63013;51.104;-115.370;2023-02-26T16:20:47;84362.20;;;20.78
74536;BMP180;63013;51.104;-115.370;2023-02-26T16:23:17;84353.80;;;20.80
74536;BMP180;63013;51.104;-115.370;2023-02-26T16:25:53;84348.60;;;20.90
74536;BMP180;63013;51.104;-115.370;2023-02-26T16:28:35;84359.60;;;21.00
74536;BMP180;63013;51.104;-115.370;2023-02-26T16:31:05;84364.80;;;21.00
74536;BMP180;63013;51.104;-115.370;2023-02-26T16:33:34;84362.00;;;21.00
74536;BMP180;63013;51.104;-115.370;2023-02-26T16:36:11;84355.60;;;21.06
74536;BMP180;63013;51.104;-115.370;2023-02-26T16:38:49;84372.20;;;21.08
74536;BMP180;63013;51.104;-115.370;2023-02-26T16:41:27;84373.20;;;21.10
74536;BMP180;63013;51.104;-115.370;2023-02-26T16:43:58;84372.60;;;21.10